Skip Navigation LinksHome page > Weather > Current weather Skip Navigation Links

Current Weather

Dallas Love Field, Dallas

For information only: do not use for flight planning or navigation.
Latest weather
Observation time Monday, June 21, 2021 8:53 PM CDT
Local time Monday, June 21, 2021 9:27 PM CDT
Flight conditions Visual Meteorological Conditions
Winds
Wind direction North (10°)
Wind speed 14 mph
Wind gusting to 26 mph
Visibility 10 mi.
Sky condition
Ceiling 12,000 ft. broken clouds
Cloud layer few clouds 6,000 ft.
Cloud layer scattered clouds 9,000 ft.
Cloud layer broken clouds 12,000 ft.
Cloud layer overcast 25,000 ft.
Temperature 78°F
Dewpoint 62°F
Altimeter 29.95 in.Hg
Derived measurements
Relative humidity 58%
Heat index 78°F
Density altitude 1941 ft.
Sea-level pressure 29.92 in.Hg
Remarks
Automated weather observing station with precipitation discriminator.
METAR KDAL 220153Z 01012G23KT 10SM FEW060 SCT090 BKN120 OVC250 26/17 A2995 RMK AO2 SLP133 T02560167

Settings

Location code

InnerDrive.Weather 4.0.6770.0 Release CLR 4.0.30319.42000
Copyright ©2018 Inner Drive Technology. All rights reserved. Portions Copyright ©1986-2018 David Braverman.

Find weather

Site navigation


Skip Navigation Links

Place info

Page info

PayPal - The safer, easier way to pay online!

Return home.

Copyright ©2021 Inner Drive Technology. Purveyors of fine, hand-crafted computer software. Page printed 2021-06-22T02:27:08 UTC.